createdAt,value
2022-10-06T00:01:04.997Z,16.44
2022-10-06T00:03:32.800Z,16.95
2022-10-06T00:06:01.434Z,16.84
2022-10-06T00:08:31.196Z,16.41
2022-10-06T00:10:58.766Z,17.04
2022-10-06T00:13:26.439Z,17.15
2022-10-06T00:15:54.230Z,17.41
2022-10-06T00:18:23.439Z,17.43
2022-10-06T00:20:55.950Z,17.55
2022-10-06T00:23:23.495Z,17.09
2022-10-06T00:25:51.205Z,17.70
2022-10-06T00:28:18.788Z,17.23
2022-10-06T00:30:46.933Z,16.98
2022-10-06T00:33:17.334Z,17.31
2022-10-06T00:35:46.567Z,16.96
2022-10-06T00:38:15.969Z,17.50
2022-10-06T00:40:45.234Z,17.35
2022-10-06T00:43:43.787Z,17.73
2022-10-06T00:46:15.409Z,17.72
2022-10-06T00:48:43.615Z,17.47
2022-10-06T00:51:12.740Z,17.53
2022-10-06T00:53:40.247Z,18.08
2022-10-06T00:56:07.676Z,17.60
2022-10-06T00:58:35.311Z,17.25
2022-10-06T01:01:04.022Z,17.15
2022-10-06T01:03:34.545Z,17.29
2022-10-06T01:06:03.638Z,17.28
2022-10-06T01:08:33.865Z,17.39
2022-10-06T01:11:01.861Z,17.76
2022-10-06T01:13:30.157Z,17.91
2022-10-06T01:16:04.870Z,17.87
2022-10-06T01:18:34.073Z,17.75
2022-10-06T01:21:07.891Z,17.74
2022-10-06T01:23:37.525Z,18.48
2022-10-06T01:26:09.957Z,17.49
2022-10-06T01:28:38.632Z,18.09
2022-10-06T01:31:08.875Z,18.11
2022-10-06T01:33:36.470Z,18.09
2022-10-06T01:36:04.607Z,18.04
2022-10-06T01:38:32.583Z,17.77
2022-10-06T01:41:01.520Z,17.73
2022-10-06T01:43:29.067Z,18.05
2022-10-06T01:45:57.661Z,18.01
2022-10-06T01:48:26.707Z,18.15
2022-10-06T01:50:54.665Z,18.40
2022-10-06T01:53:22.762Z,18.51
2022-10-06T01:55:50.161Z,18.12
2022-10-06T01:58:18.907Z,18.35
2022-10-06T02:00:46.439Z,18.10
2022-10-06T02:03:13.849Z,18.06
2022-10-06T02:05:41.238Z,17.76
2022-10-06T02:08:09.592Z,18.13
2022-10-06T02:10:37.053Z,17.77
2022-10-06T02:13:05.098Z,17.90
2022-10-06T02:15:34.044Z,17.31
2022-10-06T02:18:01.443Z,17.33
2022-10-06T02:20:28.892Z,17.58
2022-10-06T02:22:56.285Z,17.33
2022-10-06T02:25:23.708Z,17.34
2022-10-06T02:27:51.356Z,17.23
2022-10-06T02:30:18.830Z,17.41
2022-10-06T02:32:47.538Z,17.64
2022-10-06T02:35:15.060Z,17.46
2022-10-06T02:37:42.554Z,17.63
2022-10-06T02:40:10.964Z,17.41
2022-10-06T02:42:39.696Z,17.11
2022-10-06T02:45:07.874Z,17.49
2022-10-06T02:47:36.912Z,17.87
2022-10-06T02:50:07.995Z,17.71
2022-10-06T02:52:37.956Z,17.51
2022-10-06T02:55:07.084Z,17.64
2022-10-06T02:57:34.511Z,18.27
2022-10-06T03:00:01.886Z,18.24
2022-10-06T03:02:30.914Z,18.20
2022-10-06T03:04:58.417Z,17.69
2022-10-06T03:07:27.136Z,17.45
2022-10-06T03:09:55.255Z,17.90
2022-10-06T03:12:23.079Z,17.75
2022-10-06T03:14:50.500Z,17.69
2022-10-06T03:17:17.888Z,17.80
2022-10-06T03:19:45.263Z,17.80
2022-10-06T03:22:12.651Z,17.87
2022-10-06T03:24:41.369Z,17.75
2022-10-06T03:27:08.756Z,18.40
2022-10-06T03:29:36.182Z,18.05
2022-10-06T03:32:03.837Z,18.19
2022-10-06T03:34:31.287Z,18.19
2022-10-06T03:36:58.886Z,18.22
2022-10-06T03:39:26.383Z,18.47
2022-10-06T03:41:55.256Z,18.18
2022-10-06T03:44:22.858Z,18.18
2022-10-06T03:46:51.274Z,18.43
2022-10-06T03:49:18.757Z,18.33
2022-10-06T03:51:46.191Z,18.15
2022-10-06T03:54:14.979Z,17.96
2022-10-06T03:56:43.285Z,17.71
2022-10-06T03:59:13.845Z,18.15
2022-10-06T04:01:43.539Z,18.07
2022-10-06T04:04:12.248Z,17.78
2022-10-06T04:06:42.754Z,17.50
2022-10-06T04:09:15.521Z,18.23
2022-10-06T04:11:44.723Z,18.13
2022-10-06T04:14:15.777Z,18.08
2022-10-06T04:16:44.795Z,17.78
2022-10-06T04:19:13.816Z,17.44
2022-10-06T04:21:43.314Z,17.69
2022-10-06T04:24:11.695Z,17.63
2022-10-06T04:26:41.251Z,17.47
2022-10-06T04:29:08.968Z,18.14
2022-10-06T04:31:39.186Z,18.07
2022-10-06T04:34:08.154Z,17.61
2022-10-06T04:36:39.633Z,17.77
2022-10-06T04:39:08.142Z,17.88
2022-10-06T04:41:37.404Z,17.60
2022-10-06T04:44:06.066Z,18.23
2022-10-06T04:46:43.277Z,18.40
2022-10-06T04:49:19.408Z,18.12
2022-10-06T04:51:48.499Z,18.19
2022-10-06T04:54:15.967Z,17.82
2022-10-06T04:56:43.475Z,17.72
2022-10-06T04:59:10.871Z,17.41
2022-10-06T05:01:38.446Z,18.24
2022-10-06T05:04:07.533Z,18.12
2022-10-06T05:06:38.468Z,18.39
2022-10-06T05:09:08.316Z,18.32
2022-10-06T05:11:36.549Z,18.36
2022-10-06T05:14:03.991Z,18.49
2022-10-06T05:16:32.084Z,18.65
2022-10-06T05:18:59.854Z,18.64
2022-10-06T05:21:29.036Z,17.06
2022-10-06T05:23:57.834Z,16.93
2022-10-06T05:26:27.169Z,16.73
2022-10-06T05:28:55.047Z,17.04
2022-10-06T05:31:24.030Z,16.92
2022-10-06T05:33:51.492Z,17.61
2022-10-06T05:36:21.245Z,18.13
2022-10-06T05:38:49.049Z,18.03
2022-10-06T05:41:21.003Z,18.13
2022-10-06T05:43:48.841Z,18.38
2022-10-06T05:46:20.260Z,18.21
2022-10-06T05:48:49.080Z,17.82
2022-10-06T05:51:17.771Z,17.48
2022-10-06T05:53:45.220Z,17.38
2022-10-06T05:56:14.857Z,18.06
2022-10-06T05:58:45.326Z,18.07
2022-10-06T06:01:15.745Z,18.14
2022-10-06T06:03:44.639Z,17.77
2022-10-06T06:06:20.785Z,17.82
2022-10-06T06:08:49.168Z,17.73
2022-10-06T06:11:16.542Z,17.51
2022-10-06T06:13:45.330Z,17.82
2022-10-06T06:16:14.993Z,17.76
2022-10-06T06:18:42.502Z,17.62
2022-10-06T06:21:11.210Z,17.85
2022-10-06T06:23:40.331Z,17.59
2022-10-06T06:26:09.956Z,17.67
2022-10-06T06:28:37.613Z,17.22
2022-10-06T06:31:08.956Z,17.13
2022-10-06T06:33:38.045Z,17.55
2022-10-06T06:36:13.272Z,17.05
2022-10-06T06:38:40.658Z,17.32
2022-10-06T06:41:14.648Z,17.39
2022-10-06T06:43:42.527Z,17.40
2022-10-06T06:46:11.424Z,16.76
2022-10-06T06:48:39.164Z,16.94
2022-10-06T06:51:07.450Z,17.23
2022-10-06T06:53:35.469Z,17.77
2022-10-06T06:56:04.063Z,17.73
2022-10-06T06:58:32.811Z,17.50
2022-10-06T07:01:08.664Z,16.86
2022-10-06T07:03:56.624Z,16.88
2022-10-06T07:06:28.537Z,16.46
2022-10-06T07:08:57.599Z,17.24
2022-10-06T07:11:27.919Z,16.97
2022-10-06T07:13:57.987Z,17.19
2022-10-06T07:16:43.952Z,17.29
2022-10-06T07:19:30.883Z,17.28
2022-10-06T07:22:18.642Z,17.35
2022-10-06T07:25:04.015Z,16.73
2022-10-06T07:27:32.426Z,17.22
2022-10-06T07:29:59.920Z,17.82
2022-10-06T07:32:30.872Z,17.54
2022-10-06T07:35:00.682Z,17.94
2022-10-06T07:37:29.651Z,17.58
2022-10-06T07:39:57.101Z,17.51
2022-10-06T07:42:24.523Z,17.40
2022-10-06T07:45:05.898Z,17.70
2022-10-06T07:47:33.697Z,17.72
2022-10-06T07:50:02.423Z,18.00
2022-10-06T07:52:29.929Z,16.84
2022-10-06T07:54:58.285Z,17.13
2022-10-06T07:57:26.801Z,17.20
2022-10-06T07:59:55.023Z,18.12
2022-10-06T08:02:28.322Z,16.91
2022-10-06T08:04:57.680Z,17.06
2022-10-06T08:07:27.395Z,17.27
2022-10-06T08:09:54.783Z,18.03
2022-10-06T08:12:34.345Z,18.54
2022-10-06T08:15:07.009Z,17.92
2022-10-06T08:17:36.110Z,18.19
2022-10-06T08:20:04.544Z,18.17
2022-10-06T08:22:33.427Z,18.20
2022-10-06T08:25:06.310Z,17.04
2022-10-06T08:27:35.336Z,17.54
2022-10-06T08:30:03.477Z,18.23
2022-10-06T08:32:32.141Z,17.62
2022-10-06T08:34:59.993Z,17.50
2022-10-06T08:37:27.791Z,17.46
2022-10-06T08:39:57.000Z,17.18
2022-10-06T08:42:32.700Z,16.50
2022-10-06T08:45:03.841Z,16.72
2022-10-06T08:47:35.770Z,16.86
2022-10-06T08:50:05.855Z,17.06
2022-10-06T08:52:49.047Z,17.39
2022-10-06T08:55:31.625Z,17.31
2022-10-06T08:58:08.759Z,17.74
2022-10-06T09:00:37.955Z,17.40
2022-10-06T09:03:07.554Z,17.90
2022-10-06T09:05:35.270Z,17.14
2022-10-06T09:08:18.519Z,16.91
2022-10-06T09:11:02.685Z,16.94
2022-10-06T09:13:33.595Z,17.35
2022-10-06T09:16:07.884Z,17.89
2022-10-06T09:19:06.795Z,17.40
2022-10-06T09:21:35.357Z,17.89
2022-10-06T09:24:08.591Z,18.55
2022-10-06T09:26:43.271Z,17.62
2022-10-06T09:29:11.144Z,17.97
2022-10-06T09:31:42.169Z,17.91
2022-10-06T09:34:22.655Z,17.41
2022-10-06T09:37:02.763Z,17.30
2022-10-06T09:39:36.335Z,16.88
2022-10-06T09:42:12.370Z,16.90
2022-10-06T09:44:48.074Z,17.09
2022-10-06T09:47:35.506Z,16.73
2022-10-06T09:50:05.487Z,16.93
2022-10-06T09:52:32.934Z,16.79
2022-10-06T09:55:12.451Z,16.89
2022-10-06T09:57:49.766Z,16.90
2022-10-06T10:00:27.549Z,16.85
2022-10-06T10:02:59.523Z,16.95
2022-10-06T10:05:29.600Z,16.77
2022-10-06T10:08:04.550Z,17.30
2022-10-06T10:10:34.346Z,16.84
2022-10-06T10:13:04.284Z,17.57
2022-10-06T10:15:34.981Z,17.14
2022-10-06T10:18:04.072Z,17.58
2022-10-06T10:20:35.091Z,17.56
2022-10-06T10:23:07.216Z,17.39
2022-10-06T10:25:46.027Z,17.24
2022-10-06T10:28:29.174Z,17.11
2022-10-06T10:31:04.431Z,17.60
2022-10-06T10:33:46.184Z,17.68
2022-10-06T10:36:26.652Z,18.01
2022-10-06T10:38:56.063Z,18.07
2022-10-06T10:41:28.607Z,18.54
2022-10-06T10:44:08.263Z,18.40
2022-10-06T10:46:40.977Z,18.14
2022-10-06T10:49:13.743Z,18.03
2022-10-06T10:51:45.663Z,18.08
2022-10-06T10:54:16.607Z,18.48
2022-10-06T10:56:45.097Z,17.96
2022-10-06T10:59:20.780Z,18.55
2022-10-06T11:01:54.693Z,18.42
2022-10-06T11:04:22.241Z,18.59
2022-10-06T11:07:01.964Z,17.72
2022-10-06T11:09:38.917Z,17.65
2022-10-06T11:12:18.891Z,17.95
2022-10-06T11:14:54.458Z,17.91
2022-10-06T11:17:40.229Z,18.60
2022-10-06T11:20:22.728Z,18.88
2022-10-06T11:22:57.425Z,18.98
2022-10-06T11:25:36.656Z,19.12
2022-10-06T11:28:11.439Z,19.23
2022-10-06T11:30:52.649Z,18.84
2022-10-06T11:33:27.249Z,19.19
2022-10-06T11:35:54.840Z,18.64
2022-10-06T11:38:31.135Z,18.79
2022-10-06T11:41:10.116Z,18.23
2022-10-06T11:43:45.504Z,18.45
2022-10-06T11:46:31.146Z,18.19
2022-10-06T11:49:39.360Z,18.14
2022-10-06T11:52:56.254Z,18.11
2022-10-06T11:55:26.420Z,17.87
2022-10-06T11:58:30.236Z,18.33
2022-10-06T12:00:59.539Z,18.06
2022-10-06T12:03:49.365Z,18.95
2022-10-06T12:06:55.339Z,19.42
2022-10-06T12:09:52.021Z,19.69
2022-10-06T12:12:44.020Z,19.67
2022-10-06T12:18:20.957Z,19.91
2022-10-06T12:21:06.233Z,19.80
2022-10-06T12:23:45.232Z,19.26
2022-10-06T12:26:27.898Z,19.51
2022-10-06T12:29:01.230Z,19.79
2022-10-06T12:31:45.946Z,19.20
2022-10-06T12:34:56.806Z,19.64
2022-10-06T12:37:50.161Z,18.98
2022-10-06T12:40:50.120Z,19.63
2022-10-06T12:43:32.875Z,18.47
2022-10-06T12:46:04.153Z,18.28
2022-10-06T12:48:38.351Z,18.11
2022-10-06T12:51:19.195Z,18.36
2022-10-06T12:53:57.714Z,18.71
2022-10-06T12:56:31.773Z,19.02
2022-10-06T12:58:59.578Z,19.32
2022-10-06T13:01:28.086Z,19.17
2022-10-06T13:03:56.132Z,19.10
2022-10-06T13:06:25.514Z,19.28
2022-10-06T13:09:13.874Z,18.97
2022-10-06T13:11:41.410Z,19.43
2022-10-06T13:14:11.017Z,20.10
2022-10-06T13:16:41.540Z,20.25
2022-10-06T13:19:17.656Z,19.70
2022-10-06T13:21:45.864Z,19.39
2022-10-06T13:24:19.325Z,19.23
2022-10-06T13:26:48.204Z,19.41
2022-10-06T13:29:22.244Z,19.13
2022-10-06T13:31:52.934Z,19.17
2022-10-06T13:34:29.038Z,19.59
2022-10-06T13:36:57.378Z,19.13
2022-10-06T13:39:31.547Z,19.98
2022-10-06T13:42:03.338Z,19.16
2022-10-06T13:44:36.680Z,18.90
2022-10-06T13:47:06.776Z,19.63
2022-10-06T13:49:37.285Z,19.66
2022-10-06T13:52:15.023Z,19.86
2022-10-06T13:54:49.938Z,19.52
2022-10-06T13:57:37.326Z,19.67
2022-10-06T14:00:09.681Z,19.70
2022-10-06T14:02:37.218Z,19.50
2022-10-06T14:05:26.737Z,19.58
2022-10-06T14:07:56.864Z,19.59
2022-10-06T14:10:31.371Z,19.82
2022-10-06T14:13:01.641Z,19.79
2022-10-06T14:15:31.667Z,19.43
2022-10-06T14:18:01.825Z,18.18
2022-10-06T14:20:46.853Z,19.09
2022-10-06T14:23:33.576Z,19.25
2022-10-06T14:26:02.407Z,19.45
2022-10-06T14:28:29.835Z,20.06
2022-10-06T14:30:57.617Z,20.09
2022-10-06T14:33:25.265Z,19.71
2022-10-06T14:35:52.913Z,19.00
2022-10-06T14:38:20.640Z,19.75
2022-10-06T14:40:48.037Z,19.49
2022-10-06T14:43:16.813Z,19.42
2022-10-06T14:45:45.236Z,19.75
2022-10-06T14:48:15.201Z,19.39
2022-10-06T14:50:44.786Z,19.90
2022-10-06T14:53:14.709Z,19.85
2022-10-06T14:55:42.514Z,19.51
2022-10-06T14:58:09.900Z,19.66
2022-10-06T15:00:42.290Z,19.11
2022-10-06T15:03:09.980Z,19.26
2022-10-06T15:05:59.239Z,18.74
2022-10-06T15:08:26.106Z,19.05
2022-10-06T15:10:53.758Z,18.98
2022-10-06T15:13:21.266Z,19.21
2022-10-06T15:15:57.589Z,19.21
2022-10-06T15:18:26.081Z,19.24
2022-10-06T15:20:54.089Z,19.13
2022-10-06T15:23:21.575Z,19.29
2022-10-06T15:26:10.658Z,19.21
2022-10-06T15:28:55.418Z,19.09
2022-10-06T15:31:25.197Z,19.41
2022-10-06T15:33:53.455Z,19.48
2022-10-06T15:36:23.234Z,18.81
2022-10-06T15:38:51.135Z,19.44
2022-10-06T15:41:18.615Z,19.40
2022-10-06T15:43:57.995Z,19.27
2022-10-06T15:46:30.069Z,19.23
2022-10-06T15:49:00.876Z,19.41
2022-10-06T15:51:30.110Z,19.37
2022-10-06T15:53:58.844Z,18.84
2022-10-06T15:56:31.074Z,19.47
2022-10-06T15:58:58.779Z,18.97
2022-10-06T16:01:36.582Z,19.09
2022-10-06T16:04:11.959Z,19.04
2022-10-06T16:06:50.538Z,18.95
2022-10-06T16:09:19.623Z,18.37
2022-10-06T16:11:47.841Z,19.01
2022-10-06T16:14:16.275Z,18.97
2022-10-06T16:16:45.885Z,19.01
2022-10-06T16:19:13.679Z,19.03
2022-10-06T16:21:41.310Z,19.06
2022-10-06T16:24:08.855Z,18.70
2022-10-06T16:26:36.796Z,18.68
2022-10-06T16:29:04.923Z,18.71
2022-10-06T16:31:32.752Z,18.86
2022-10-06T16:34:01.864Z,18.85
2022-10-06T16:36:29.284Z,18.95
2022-10-06T16:38:57.029Z,18.74
2022-10-06T16:41:25.021Z,18.78
2022-10-06T16:43:54.114Z,18.78
2022-10-06T16:46:23.464Z,18.80
2022-10-06T16:48:53.020Z,18.67
2022-10-06T16:51:23.211Z,18.49
2022-10-06T16:53:52.272Z,18.65
2022-10-06T16:56:21.470Z,18.68
2022-10-06T16:58:50.540Z,18.54
2022-10-06T17:01:18.515Z,18.38
2022-10-06T17:03:46.070Z,18.50
2022-10-06T17:06:15.939Z,18.42
2022-10-06T17:08:45.707Z,18.47
2022-10-06T17:11:14.568Z,18.35
2022-10-06T17:13:44.048Z,18.12
2022-10-06T17:16:15.293Z,18.17
2022-10-06T17:18:42.914Z,18.17
2022-10-06T17:21:39.698Z,18.14
2022-10-06T17:24:04.575Z,18.26
2022-10-06T17:26:33.408Z,18.10
2022-10-06T17:29:02.535Z,18.15
2022-10-06T17:31:33.318Z,18.06
2022-10-06T17:34:00.776Z,18.07
2022-10-06T17:36:28.358Z,18.04
2022-10-06T17:38:58.627Z,18.02
2022-10-06T17:41:30.367Z,18.10
2022-10-06T17:44:00.247Z,17.94
2022-10-06T17:46:27.886Z,17.92
2022-10-06T17:48:56.834Z,17.76
2022-10-06T17:51:26.907Z,17.90
2022-10-06T17:53:56.128Z,17.93
2022-10-06T17:56:25.846Z,17.82
2022-10-06T17:58:56.960Z,17.86
2022-10-06T18:01:26.498Z,17.80
2022-10-06T18:03:55.305Z,17.75
2022-10-06T18:06:24.380Z,17.77
2022-10-06T18:08:51.749Z,17.75
2022-10-06T18:11:38.568Z,17.78
2022-10-06T18:14:09.456Z,17.55
2022-10-06T18:16:39.543Z,17.51
2022-10-06T18:19:09.144Z,17.44
2022-10-06T18:21:38.751Z,17.39
2022-10-06T18:24:08.911Z,17.39
2022-10-06T18:26:41.722Z,17.52
2022-10-06T18:29:12.254Z,17.31
2022-10-06T18:31:40.175Z,17.35
2022-10-06T18:36:56.828Z,17.28
2022-10-06T18:39:24.888Z,17.09
2022-10-06T18:41:56.481Z,17.22
2022-10-06T18:44:50.389Z,17.26
2022-10-06T18:47:35.621Z,17.17
2022-10-06T18:50:03.033Z,17.24
2022-10-06T18:52:30.442Z,17.10
2022-10-06T18:55:00.878Z,16.93
2022-10-06T18:57:29.627Z,16.89
2022-10-06T18:59:59.710Z,16.97
2022-10-06T19:02:27.426Z,16.87
2022-10-06T19:04:58.737Z,16.84
2022-10-06T19:07:31.234Z,16.88
2022-10-06T19:09:59.105Z,16.76
2022-10-06T19:12:28.885Z,16.81
2022-10-06T19:14:57.645Z,16.99
2022-10-06T19:17:26.549Z,17.02
2022-10-06T19:19:57.084Z,16.91
2022-10-06T19:22:25.342Z,16.84
2022-10-06T19:24:53.249Z,16.70
2022-10-06T19:27:24.367Z,16.64
2022-10-06T19:29:54.196Z,16.22
2022-10-06T19:32:25.265Z,16.22
2022-10-06T19:34:54.920Z,16.27
2022-10-06T19:37:22.482Z,16.30
2022-10-06T19:39:50.345Z,16.59
2022-10-06T19:42:37.584Z,16.68
2022-10-06T19:45:09.596Z,16.40
2022-10-06T19:47:37.172Z,16.31
2022-10-06T19:50:11.636Z,16.21
2022-10-06T19:52:40.260Z,16.34
2022-10-06T19:55:07.870Z,16.34
2022-10-06T19:57:35.696Z,17.18
2022-10-06T20:00:03.476Z,17.41
2022-10-06T20:02:30.934Z,17.16
2022-10-06T20:04:58.490Z,17.11
2022-10-06T20:07:27.929Z,17.23
2022-10-06T20:09:56.298Z,17.56
2022-10-06T20:12:25.231Z,17.66
2022-10-06T20:14:53.946Z,17.36
2022-10-06T20:17:23.102Z,17.33
2022-10-06T20:19:56.696Z,17.12
2022-10-06T20:22:27.300Z,17.15
2022-10-06T20:24:54.780Z,17.67
2022-10-06T20:27:22.294Z,17.71
2022-10-06T20:29:49.955Z,17.58
2022-10-06T20:32:18.746Z,17.78
2022-10-06T20:34:48.299Z,17.78
2022-10-06T20:37:15.752Z,17.44
2022-10-06T20:40:02.458Z,17.09
2022-10-06T20:42:31.230Z,17.12
2022-10-06T20:44:59.171Z,17.13
2022-10-06T20:47:26.901Z,16.98
2022-10-06T20:49:56.372Z,17.37
2022-10-06T20:52:24.186Z,17.43
2022-10-06T20:54:52.891Z,17.03
2022-10-06T20:57:20.532Z,16.74
2022-10-06T20:59:48.423Z,16.48
2022-10-06T21:02:16.008Z,16.29
2022-10-06T21:04:45.135Z,15.87
2022-10-06T21:07:13.016Z,15.89
2022-10-06T21:09:40.939Z,15.80
2022-10-06T21:12:09.815Z,15.79
2022-10-06T21:14:37.633Z,15.91
2022-10-06T21:17:05.437Z,15.85
2022-10-06T21:19:37.922Z,15.94
2022-10-06T21:22:05.743Z,15.84
2022-10-06T21:24:33.339Z,15.63
2022-10-06T21:27:00.933Z,15.59
2022-10-06T21:29:29.975Z,15.41
2022-10-06T21:31:57.662Z,15.42
2022-10-06T21:34:25.658Z,15.40
2022-10-06T21:36:53.263Z,15.08
2022-10-06T21:39:20.937Z,15.10
2022-10-06T21:41:48.441Z,15.11
2022-10-06T21:44:17.986Z,15.33
2022-10-06T21:46:49.344Z,15.25
2022-10-06T21:49:18.251Z,15.06
2022-10-06T21:51:47.332Z,15.18
2022-10-06T21:54:15.269Z,15.11
2022-10-06T21:56:42.952Z,15.02
2022-10-06T21:59:10.858Z,14.88
2022-10-06T22:01:40.445Z,14.86
2022-10-06T22:04:09.857Z,14.91
2022-10-06T22:06:37.884Z,14.77
2022-10-06T22:09:06.663Z,14.76
2022-10-06T22:11:36.502Z,14.69
2022-10-06T22:14:07.883Z,14.71
2022-10-06T22:16:36.214Z,14.82
2022-10-06T22:19:05.798Z,14.64
2022-10-06T22:21:36.887Z,14.52
2022-10-06T22:24:06.840Z,14.50
2022-10-06T22:26:37.424Z,14.50
2022-10-06T22:29:06.886Z,14.54
2022-10-06T22:31:35.120Z,14.36
2022-10-06T22:34:04.796Z,14.17
2022-10-06T22:36:34.153Z,14.34
2022-10-06T22:39:02.076Z,14.33
2022-10-06T22:41:30.346Z,14.19
2022-10-06T22:43:59.524Z,14.19
2022-10-06T22:46:28.611Z,14.38
2022-10-06T22:48:56.664Z,14.63
2022-10-06T22:51:24.940Z,14.58
2022-10-06T22:53:57.901Z,14.41
2022-10-06T22:56:27.084Z,14.23
2022-10-06T22:58:54.705Z,14.39
2022-10-06T23:01:22.532Z,14.38
2022-10-06T23:03:50.205Z,14.16
2022-10-06T23:06:18.909Z,14.00
2022-10-06T23:08:46.594Z,13.89
2022-10-06T23:11:17.190Z,13.87
2022-10-06T23:13:45.483Z,13.86
2022-10-06T23:16:14.480Z,13.79
2022-10-06T23:18:43.411Z,13.80
2022-10-06T23:21:14.028Z,13.98
2022-10-06T23:23:41.512Z,13.94
2022-10-06T23:26:11.771Z,13.81
2022-10-06T23:28:41.206Z,13.67
2022-10-06T23:31:10.963Z,13.77
2022-10-06T23:33:39.335Z,13.85
2022-10-06T23:36:08.817Z,13.87
2022-10-06T23:38:37.381Z,13.81
2022-10-06T23:41:06.119Z,13.86
2022-10-06T23:43:34.021Z,13.69
2022-10-06T23:46:03.537Z,13.61
2022-10-06T23:48:31.112Z,13.52
2022-10-06T23:51:00.356Z,13.36
2022-10-06T23:53:28.230Z,13.44
2022-10-06T23:55:55.785Z,13.56
2022-10-06T23:58:23.615Z,13.53
